GW4046 Weather Reports


Display with metric or nautical units.
time (UTC)temp
F
wind
direction
speed
MPH
gust
MPH
rain 1hr
in
rain 24hr
in
rain mn
in
humidity
%
barometer
mb
20240303203634 25 80 4.0 4.0 0.00 0.00 0.00 99 1010.3
20240303202632 25 358 7.0 23.0 0.00 0.00 0.00 99 1010.3
20240303201631 25 51 2.0 4.0 0.00 0.00 0.00 99 1010.7
20240303200631 25 315 2.0 3.0 0.00 0.00 0.00 99 1010.7
20240303195631 25 17 1.0 2.0 0.00 0.00 0.00 99 1010.4
20240303194630 25 58 2.0 3.0 0.00 0.00 0.00 99 1010.8
20240303193630 25 53 5.0 6.0 0.00 0.00 0.00 99 1010.4
20240303192629 24 19 1.0 2.0 0.00 0.00 0.00 99 1010.9
20240303191628 24 1 3.0 3.0 0.00 0.00 0.00 99 1010.8
20240303190628 25 42 0.0 0.0 0.00 0.00 0.00 99 1010.4
20240303185627 25 353 6.0 10.0 0.00 0.00 0.00 99 1010.6
20240303184626 24 11 1.0 1.0 0.00 0.00 0.00 99 1010.4
20240303183626 25 64 2.0 3.0 0.00 0.00 0.00 99 1010.8
20240303182625 25 327 8.0 13.0 0.00 0.00 0.00 99 1010.3
20240303181624 25 77 3.0 4.0 0.00 0.00 0.00 99 1010.4
20240303180622 24 345 5.0 9.0 0.00 0.00 0.00 99 1010.6
20240303175622 24 73 2.0 3.0 0.00 0.00 0.00 99 1010.1
20240303174622 24 357 6.0 10.0 0.00 0.00 0.00 99 1010.0
20240303173622 24 4 7.0 9.0 0.00 0.00 0.00 99 1010.1
20240303172621 24 136 4.0 6.0 0.00 0.00 0.00 99 1009.6
20240303171621 25 320 4.0 7.0 0.00 0.00 0.00 99 1009.5
20240303170619 25 14 8.0 14.0 0.00 0.00 0.00 99 1009.9
20240303165618 25 181 1.0 2.0 0.00 0.00 0.00 99 1009.3
20240303164617 24 353 5.0 6.0 0.00 0.00 0.00 99 1009.4
20240303163617 24 39 2.0 3.0 0.00 0.00 0.00 99 1009.4
20240303162617 23 60 0.0 0.0 0.00 0.00 0.00 98 1009.0
20240303161616 23 14 9.0 16.0 0.00 0.00 0.00 98 1009.3
20240303160614 23 8 3.0 9.0 0.00 0.00 0.00 98 1009.5
20240303155613 23 109 4.0 7.0 0.00 0.00 0.00 98 1009.4
20240303154613 23 82 1.0 2.0 0.00 0.00 0.00 98 1008.7
20240303153611 23 310 2.0 3.0 0.00 0.00 0.00 98 1008.9
20240303152611 23 42 4.0 6.0 0.00 0.00 0.00 98 1008.8
20240303151609 23 306 4.0 6.0 0.00 0.00 0.00 98 1008.7
20240303150608 23 279 5.0 8.0 0.00 0.00 0.00 98 1008.2
20240303145608 23 37 1.0 1.0 0.00 0.00 0.00 98 1007.9
20240303144607 23 34 1.0 1.0 0.00 0.00 0.00 98 1008.1
20240303143606 23 32 3.0 7.0 0.00 0.00 0.00 98 1007.9
20240303142604 23 1 7.0 15.0 0.00 0.00 0.00 98 1008.1
20240303141603 22 5 1.0 2.0 0.00 0.00 0.00 98 1007.9
20240303140602 22 30 1.0 1.0 0.00 0.00 0.00 98 1007.7
20240303135602 22 55 1.0 1.0 0.00 0.00 0.00 98 1007.7
20240303134603 23 353 3.0 3.0 0.00 0.00 0.00 98 1007.9
20240303133603 22 327 6.0 8.0 0.00 0.00 0.00 98 1007.6
20240303132602 22 80 2.0 3.0 0.00 0.00 0.00 98 1007.3
20240303131602 22 310 2.0 4.0 0.00 0.00 0.00 98 1007.5
20240303130601 22 22 4.0 8.0 0.00 0.00 0.00 98 1007.6
20240303125600 23 16 3.0 4.0 0.00 0.00 0.00 98 1007.1
20240303124559 23 320 2.0 2.0 0.00 0.00 0.00 98 1007.1
20240303123558 23 27 4.0 7.0 0.00 0.00 0.00 98 1006.9
20240303122557 23 334 2.0 3.0 0.00 0.00 0.00 98 1006.9
20240303121555 23 42 1.0 3.0 0.00 0.00 0.00 98 1006.6
20240303120555 23 66 0.0 0.0 0.00 0.00 0.00 98 1006.6
20240303115554 23 38 1.0 1.0 0.00 0.00 0.00 98 1006.3
20240303114553 23 58 1.0 3.0 0.00 0.00 0.00 98 1006.3
20240303113553 23 335 1.0 1.0 0.00 0.00 0.00 98 1006.0
20240303112553 23 28 1.0 2.0 0.00 0.00 0.00 98 1006.2
20240303111552 23 43 5.0 8.0 0.00 0.00 0.00 98 1006.1
20240303110552 23 34 3.0 6.0 0.00 0.00 0.00 98 1006.0
20240303105551 23 40 5.0 8.0 0.00 0.00 0.00 98 1005.9
20240303104551 23 11 0.0 1.0 0.00 0.00 0.00 98 1005.9
20240303103550 23 30 3.0 4.0 0.00 0.00 0.00 98 1005.7
20240303102550 23 301 5.0 7.0 0.00 0.00 0.00 98 1005.6
20240303101550 23 162 3.0 4.0 0.00 0.00 0.00 98 1005.6
20240303100550 23 35 1.0 2.0 0.00 0.00 0.00 98 1005.7
20240303095549 23 348 1.0 2.0 0.00 0.00 0.00 98 1005.3
20240303094548 23 150 3.0 4.0 0.00 0.00 0.00 98 1005.6
20240303093548 23 1 1.0 2.0 0.00 0.00 0.00 98 1005.6
20240303092548 23 24 1.0 1.0 0.00 0.00 0.00 98 1005.7
20240303091548 23 208 4.0 6.0 0.00 0.00 0.00 98 1006.0
20240303090547 23 50 4.0 8.0 0.00 0.00 0.00 98 1005.6
20240303085546 23 352 6.0 8.0 0.00 0.00 0.00 98 1005.7
20240303084546 23 20 1.0 1.0 0.00 0.00 0.00 98 1005.0
20240303083544 23 3 7.0 14.0 0.00 0.00 0.00 98 1005.6
20240303082543 23 28 3.0 3.0 0.00 0.00 0.00 98 1004.7
20240303081543 24 5 1.0 1.0 0.00 0.00 0.00 99 1004.6
20240303080543 23 5 2.0 2.0 0.00 0.00 0.00 98 1004.4
20240303075543 23 42 0.0 1.0 0.00 0.00 0.00 98 1003.9
20240303074541 23 303 3.0 4.0 0.00 0.00 0.00 98 1004.1
20240303073539 23 17 5.0 7.0 0.00 0.00 0.00 98 1004.4
20240303072538 23 18 3.0 3.0 0.00 0.00 0.00 98 1004.1
20240303071537 23 341 4.0 7.0 0.00 0.00 0.00 98 1003.9
20240303070537 23 86 3.0 4.0 0.00 0.00 0.00 98 1003.9
20240303065537 23 20 4.0 6.0 0.00 0.00 0.00 98 1003.2
20240303064536 23 346 5.0 7.0 0.00 0.00 0.00 98 1004.0
20240303063535 23 17 3.0 4.0 0.00 0.00 0.00 98 1003.9
20240303062534 23 11 3.0 3.0 0.00 0.00 0.00 98 1004.0
20240303061534 23 30 2.0 6.0 0.00 0.00 0.00 98 1003.9
20240303060534 23 5 2.0 2.0 0.00 0.00 0.00 98 1003.5
20240303055534 23 57 4.0 7.0 0.00 0.00 0.00 98 1003.6
20240303054534 23 350 6.0 11.0 0.00 0.00 0.00 98 1003.2
20240303053534 23 358 2.0 3.0 0.00 0.00 0.00 98 1003.9
20240303052533 24 44 0.0 1.0 0.00 0.00 0.00 99 1003.4
20240303051533 24 61 3.0 4.0 0.00 0.00 0.00 99 1002.9
20240303050532 24 25 3.0 4.0 0.00 0.00 0.00 99 1002.4
20240303045532 24 348 5.0 8.0 0.00 0.00 0.00 99 1001.9
20240303044531 23 322 2.0 4.0 0.00 0.00 0.00 98 1001.9
20240303043531 24 211 2.0 2.0 0.00 0.00 0.00 99 1002.0
20240303042530 24 9 4.0 6.0 0.00 0.00 0.00 99 1002.2
20240303041530 25 35 1.0 1.0 0.00 0.00 0.00 99 1001.5
20240303040530 25 12 5.0 8.0 0.00 0.00 0.00 99 1001.6
20240303035529 25 338 5.0 6.0 0.00 0.00 0.00 99 1001.6
20240303034530 26 43 1.0 2.0 0.00 0.00 0.00 99 1001.0
20240303033528 26 334 8.0 14.0 0.00 0.00 0.00 99 1000.9
20240303032527 26 47 1.0 1.0 0.00 0.00 0.00 99 1000.6
20240303031527 26 0 2.0 4.0 0.00 0.00 0.00 99 1001.3
20240303030526 26 335 4.0 7.0 0.00 0.00 0.00 99 1001.3
20240303025525 26 23 4.0 6.0 0.00 0.00 0.00 99 1001.3
20240303024523 26 10 4.0 9.0 0.00 0.00 0.00 99 1001.5
20240303023523 26 28 3.0 7.0 0.00 0.00 0.00 99 1001.2
20240303022522 26 81 2.0 3.0 0.00 0.00 0.00 99 1001.5
20240303021520 26 63 2.0 2.0 0.00 0.00 0.00 99 1001.6
20240303020520 26 9 9.0 11.0 0.00 0.00 0.00 99 1001.7
20240303015518 26 34 1.0 2.0 0.00 0.00 0.00 99 1001.5
20240303014517 26 80 2.0 4.0 0.00 0.00 0.00 99 1001.7
20240303013517 26 176 4.0 7.0 0.00 0.00 0.00 99 1001.5
20240303012516 25 348 3.0 4.0 0.00 0.00 0.00 99 1001.6
20240303011514 26 18 9.0 11.0 0.00 0.00 0.00 99 1002.0
20240303010513 25 144 1.0 2.0 0.00 0.00 0.00 99 1002.2
20240303005513 25 333 2.0 4.0 0.00 0.00 0.00 99 1002.1
20240303004513 25 36 4.0 6.0 0.00 0.00 0.00 99 1002.1
20240303003512 25 354 11.0 15.0 0.00 0.00 0.00 99 1002.7
20240303002512 25 29 5.0 10.0 0.00 0.00 0.00 99 1002.7
20240303001512 25 58 3.0 7.0 0.00 0.00 0.00 99 1002.2
20240303000511 25 58 7.0 11.0 0.00 0.00 0.00 99 1002.9
20240302235510 24 0 3.0 3.0 0.00 0.00 0.00 99 1002.7
20240302234511 24 59 1.0 1.0 0.00 0.00 0.00 99 1002.6
20240302233509 24 117 2.0 2.0 0.00 0.00 0.00 99 1002.9
20240302232508 24 39 0.0 2.0 0.00 0.00 0.00 99 1002.9
20240302231507 24 36 2.0 3.0 0.00 0.00 0.00 99 1003.4
20240302230505 25 221 2.0 3.0 0.00 0.00 0.00 99 1003.4
20240302225504 24 21 6.0 8.0 0.00 0.00 0.00 99 1003.7
20240302224502 24 41 7.0 13.0 0.00 0.00 0.00 99 1002.9
20240302223500 24 33 1.0 1.0 0.00 0.00 0.00 99 1003.5
20240302222500 24 50 1.0 2.0 0.00 0.00 0.00 99 1003.7
20240302221458 24 6 5.0 6.0 0.00 0.00 0.00 99 1003.7
20240302220457 24 353 3.0 6.0 0.00 0.00 0.00 99 1003.9
20240302215456 24 2 6.0 8.0 0.00 0.00 0.00 99 1003.4
20240302214454 24 188 3.0 4.0 0.00 0.00 0.00 99 1004.1
20240302213453 23 52 1.0 2.0 0.00 0.00 0.00 98 1003.9
20240302212451 23 159 3.0 4.0 0.00 0.00 0.00 98 1004.2
20240302211451 23 7 6.0 8.0 0.00 0.00 0.00 98 1004.2
20240302210450 23 11 0.0 0.0 0.00 0.00 0.00 98 1004.4
20240302205449 22 89 2.0 3.0 0.00 0.00 0.00 98 1004.4
20240302204448 22 27 5.0 8.0 0.00 0.00 0.00 98 1005.0